createdAt,value
2023-08-13T00:15:58.546Z,22.47
2023-08-13T00:27:27.586Z,22.32
2023-08-13T00:30:00.511Z,22.27
2023-08-13T00:32:34.748Z,22.26
2023-08-13T00:35:08.355Z,22.22
2023-08-13T00:37:41.296Z,22.23
2023-08-13T00:40:14.076Z,22.21
2023-08-13T00:42:46.944Z,22.18
2023-08-13T00:45:19.908Z,22.16
2023-08-13T00:47:55.611Z,22.16
2023-08-13T00:50:28.646Z,22.11
2023-08-13T00:53:01.699Z,22.10
2023-08-13T00:55:34.649Z,22.10
2023-08-13T00:58:08.309Z,22.07
2023-08-13T01:00:41.203Z,22.03
2023-08-13T01:03:16.068Z,22.00
2023-08-13T01:05:56.094Z,21.96
2023-08-13T01:08:40.768Z,21.95
2023-08-13T01:11:22.579Z,21.96
2023-08-13T02:21:43.671Z,21.69
2023-08-13T02:47:18.807Z,21.60
2023-08-13T02:49:51.747Z,21.60
2023-08-13T02:52:24.533Z,21.59
2023-08-13T02:54:57.406Z,21.57
2023-08-13T02:57:34.591Z,21.55
2023-08-13T03:00:09.210Z,21.57
2023-08-13T03:02:43.529Z,21.55
2023-08-13T03:05:16.855Z,21.56
2023-08-13T03:07:49.717Z,21.51
2023-08-13T03:10:22.690Z,21.50
2023-08-13T03:12:55.569Z,21.47
2023-08-13T03:15:28.241Z,21.53
2023-08-13T03:18:02.675Z,21.45
2023-08-13T03:20:37.994Z,21.40
2023-08-13T03:23:11.099Z,21.36
2023-08-13T03:25:46.669Z,21.33
2023-08-13T03:28:19.889Z,21.39
2023-08-13T03:30:59.702Z,21.35
2023-08-13T03:33:37.185Z,21.36
2023-08-13T03:36:10.003Z,21.34
2023-08-13T03:38:42.779Z,21.33
2023-08-13T03:41:18.049Z,21.29
2023-08-13T03:43:50.962Z,21.27
2023-08-13T03:46:23.985Z,21.23
2023-08-13T03:48:58.138Z,21.20
2023-08-13T03:51:31.428Z,21.12
2023-08-13T03:54:07.676Z,21.13
2023-08-13T03:56:42.904Z,21.12
2023-08-13T03:59:15.660Z,21.14
2023-08-13T04:01:51.252Z,21.10
2023-08-13T04:04:26.023Z,21.12
2023-08-13T04:06:59.174Z,21.07
2023-08-13T04:09:31.992Z,21.05
2023-08-13T04:12:05.357Z,21.07
2023-08-13T04:14:38.444Z,21.05
2023-08-13T04:17:11.738Z,21.03
2023-08-13T04:19:45.957Z,20.97
2023-08-13T04:22:22.404Z,20.97
2023-08-13T04:24:56.153Z,20.97
2023-08-13T04:27:30.926Z,21.04
2023-08-13T04:30:03.969Z,21.03
2023-08-13T04:32:39.844Z,20.96
2023-08-13T04:35:14.334Z,20.96
2023-08-13T04:37:47.294Z,20.98
2023-08-13T04:40:20.887Z,20.88
2023-08-13T04:42:55.148Z,20.90
2023-08-13T04:45:29.612Z,20.90
2023-08-13T04:48:03.181Z,20.93
2023-08-13T04:50:40.228Z,20.90
2023-08-13T04:53:13.193Z,20.90
2023-08-13T04:55:46.066Z,20.89
2023-08-13T04:58:19.885Z,20.91
2023-08-13T05:00:54.933Z,20.84
2023-08-13T05:03:28.857Z,20.83
2023-08-13T05:06:03.431Z,20.80
2023-08-13T05:08:36.238Z,20.88
2023-08-13T05:11:10.568Z,20.79
2023-08-13T05:13:43.389Z,20.82
2023-08-13T05:16:17.241Z,20.81
2023-08-13T05:18:50.739Z,20.76
2023-08-13T05:21:25.253Z,20.76
2023-08-13T05:23:58.512Z,20.74
2023-08-13T05:26:31.503Z,20.75
2023-08-13T05:29:04.692Z,20.73
2023-08-13T05:31:38.260Z,20.71
2023-08-13T05:34:11.110Z,20.71
2023-08-13T05:36:45.472Z,20.68
2023-08-13T05:39:18.323Z,20.74
2023-08-13T05:41:51.375Z,20.76
2023-08-13T05:44:24.261Z,20.82
2023-08-13T05:46:57.687Z,20.83
2023-08-13T05:49:31.191Z,20.85
2023-08-13T05:52:05.415Z,20.86
2023-08-13T05:54:38.216Z,20.78
2023-08-13T05:57:11.071Z,20.84
2023-08-13T05:59:43.850Z,20.91
2023-08-13T06:02:17.075Z,20.92
2023-08-13T06:04:50.057Z,20.92
2023-08-13T06:07:24.267Z,20.96
2023-08-13T06:09:57.713Z,20.96
2023-08-13T06:12:30.872Z,21.00
2023-08-13T06:15:03.922Z,20.97
2023-08-13T06:17:36.815Z,21.02
2023-08-13T06:20:11.194Z,21.02
2023-08-13T06:22:45.632Z,21.06
2023-08-13T06:25:18.380Z,21.07
2023-08-13T06:27:51.153Z,21.11
2023-08-13T06:30:25.244Z,21.12
2023-08-13T06:32:58.370Z,21.22
2023-08-13T06:35:31.190Z,21.25
2023-08-13T06:38:05.711Z,21.28
2023-08-13T06:40:38.706Z,21.30
2023-08-13T06:43:12.256Z,21.40
2023-08-13T06:45:44.863Z,21.57
2023-08-13T06:48:17.954Z,21.67
2023-08-13T06:50:55.879Z,21.73
2023-08-13T06:53:30.036Z,21.80
2023-08-13T06:56:04.146Z,21.93
2023-08-13T06:58:37.018Z,21.99
2023-08-13T07:01:10.782Z,22.07
2023-08-13T07:03:45.843Z,22.28
2023-08-13T07:06:21.037Z,22.39
2023-08-13T07:08:55.390Z,22.58
2023-08-13T07:11:28.200Z,22.72
2023-08-13T07:14:04.291Z,22.84
2023-08-13T07:16:37.316Z,22.97
2023-08-13T07:19:10.232Z,23.05
2023-08-13T07:21:45.062Z,23.18
2023-08-13T07:24:19.410Z,23.28
2023-08-13T07:26:52.770Z,23.33
2023-08-13T07:29:25.622Z,23.39
2023-08-13T07:31:58.398Z,23.48
2023-08-13T07:34:31.185Z,23.51
2023-08-13T07:37:04.143Z,23.50
2023-08-13T07:39:39.425Z,23.56
2023-08-13T07:42:15.451Z,23.55
2023-08-13T07:44:49.252Z,23.66
2023-08-13T07:47:22.597Z,23.66
2023-08-13T07:49:55.975Z,23.65
2023-08-13T07:52:29.205Z,23.79
2023-08-13T07:55:03.463Z,23.76
2023-08-13T07:57:36.551Z,23.81
2023-08-13T08:00:11.878Z,23.82
2023-08-13T08:02:50.194Z,23.77
2023-08-13T08:05:23.355Z,23.85
2023-08-13T08:07:56.318Z,23.84
2023-08-13T08:10:30.799Z,23.91
2023-08-13T08:13:03.820Z,23.93
2023-08-13T08:15:36.687Z,23.91
2023-08-13T08:18:09.702Z,23.91
2023-08-13T08:20:42.604Z,23.91
2023-08-13T08:23:15.348Z,23.89
2023-08-13T08:25:49.512Z,23.90
2023-08-13T08:28:22.334Z,23.95
2023-08-13T08:30:55.241Z,23.96
2023-08-13T08:33:28.115Z,23.97
2023-08-13T08:36:00.905Z,24.00
2023-08-13T08:38:33.575Z,24.06
2023-08-13T08:41:08.019Z,24.14
2023-08-13T08:43:41.686Z,24.16
2023-08-13T08:46:17.085Z,24.25
2023-08-13T08:48:52.268Z,24.23
2023-08-13T08:51:25.518Z,24.23
2023-08-13T08:54:00.454Z,24.32
2023-08-13T08:56:34.550Z,24.29
2023-08-13T08:59:07.882Z,24.32
2023-08-13T09:01:41.718Z,24.31
2023-08-13T09:04:15.216Z,24.38
2023-08-13T09:06:55.432Z,24.30
2023-08-13T09:09:29.100Z,24.37
2023-08-13T09:12:03.488Z,24.46
2023-08-13T09:14:36.307Z,24.43
2023-08-13T09:17:12.195Z,24.50
2023-08-13T09:19:45.014Z,24.56
2023-08-13T09:22:18.383Z,24.67
2023-08-13T09:24:51.569Z,24.67
2023-08-13T09:27:26.934Z,24.64
2023-08-13T09:30:03.909Z,24.78
2023-08-13T09:32:38.119Z,24.86
2023-08-13T09:35:11.273Z,24.86
2023-08-13T09:37:44.700Z,24.98
2023-08-13T09:40:17.569Z,25.05
2023-08-13T09:42:54.534Z,25.13
2023-08-13T09:45:29.795Z,25.17
2023-08-13T09:48:06.378Z,25.23
2023-08-13T09:50:41.985Z,25.32
2023-08-13T09:53:16.115Z,25.37
2023-08-13T09:55:56.393Z,25.33
2023-08-13T09:58:31.294Z,25.46
2023-08-13T10:01:05.491Z,25.62
2023-08-13T10:03:40.363Z,25.71
2023-08-13T10:06:13.927Z,25.86
2023-08-13T10:08:47.489Z,25.94
2023-08-13T10:11:20.606Z,26.00
2023-08-13T10:13:54.765Z,26.07
2023-08-13T10:16:28.452Z,26.15
2023-08-13T10:19:03.377Z,26.27
2023-08-13T10:21:36.897Z,26.46
2023-08-13T10:24:13.418Z,26.32
2023-08-13T10:26:46.432Z,26.32
2023-08-13T10:29:22.698Z,26.58
2023-08-13T10:31:56.913Z,26.79
2023-08-13T10:34:43.477Z,26.75
2023-08-13T10:37:18.701Z,27.20
2023-08-13T10:40:09.160Z,27.14
2023-08-13T10:42:51.154Z,27.51
2023-08-13T10:45:29.118Z,27.68
2023-08-13T10:48:03.848Z,27.73
2023-08-13T10:50:38.355Z,27.82
2023-08-13T10:53:12.889Z,28.03
2023-08-13T10:59:41.515Z,28.82
2023-08-13T11:02:18.948Z,29.05
2023-08-13T11:04:53.920Z,29.15
2023-08-13T11:07:27.291Z,29.15
2023-08-13T11:10:01.931Z,29.26
2023-08-13T11:12:34.978Z,29.24
2023-08-13T11:15:11.670Z,29.33
2023-08-13T11:17:48.927Z,29.37
2023-08-13T11:20:22.998Z,29.47
2023-08-13T11:22:57.050Z,29.42
2023-08-13T11:25:30.834Z,29.47
2023-08-13T11:28:03.716Z,29.49
2023-08-13T11:30:41.432Z,29.41
2023-08-13T11:33:16.249Z,29.42
2023-08-13T11:35:49.758Z,29.38
2023-08-13T11:38:25.734Z,29.26
2023-08-13T11:41:00.718Z,29.25
2023-08-13T11:43:33.521Z,29.21
2023-08-13T11:46:06.553Z,29.28
2023-08-13T11:48:43.379Z,29.39
2023-08-13T11:51:23.596Z,29.48
2023-08-13T11:53:56.406Z,29.51
2023-08-13T11:56:29.040Z,29.41
2023-08-13T11:59:01.885Z,29.31
2023-08-13T12:01:36.000Z,29.21
2023-08-13T12:04:10.697Z,29.10
2023-08-13T12:06:43.504Z,28.97
2023-08-13T12:09:16.200Z,28.88
2023-08-13T12:11:49.622Z,28.68
2023-08-13T12:14:24.601Z,28.46
2023-08-13T12:16:58.446Z,28.29
2023-08-13T12:19:32.732Z,28.12
2023-08-13T12:22:05.747Z,28.11
2023-08-13T12:24:38.665Z,28.08
2023-08-13T12:27:14.089Z,28.09
2023-08-13T12:29:46.963Z,28.20
2023-08-13T12:32:19.924Z,28.35
2023-08-13T12:34:54.113Z,28.43
2023-08-13T12:37:27.426Z,28.59
2023-08-13T12:40:00.507Z,28.57
2023-08-13T12:42:34.022Z,28.65
2023-08-13T12:45:09.190Z,28.73
2023-08-13T12:47:42.006Z,28.63
2023-08-13T12:50:16.010Z,28.68
2023-08-13T12:52:48.924Z,28.62
2023-08-13T12:55:21.922Z,28.62
2023-08-13T12:57:54.833Z,28.39
2023-08-13T13:00:27.685Z,28.32
2023-08-13T13:03:00.503Z,28.28
2023-08-13T13:05:37.052Z,28.16
2023-08-13T13:08:09.793Z,28.09
2023-08-13T13:10:42.428Z,27.93
2023-08-13T13:13:15.401Z,27.81
2023-08-13T13:15:48.294Z,27.71
2023-08-13T13:18:21.781Z,27.66
2023-08-13T13:20:55.881Z,27.54
2023-08-13T13:23:28.893Z,27.44
2023-08-13T13:26:01.721Z,27.44
2023-08-13T13:28:34.531Z,27.42
2023-08-13T13:31:07.457Z,27.45
2023-08-13T13:33:40.259Z,27.53
2023-08-13T13:36:14.814Z,27.59
2023-08-13T13:38:47.901Z,27.84
2023-08-13T13:41:20.718Z,28.14
2023-08-13T13:43:53.530Z,28.35
2023-08-13T13:46:26.440Z,28.63
2023-08-13T13:48:59.370Z,28.89
2023-08-13T13:51:33.485Z,29.20
2023-08-13T13:54:07.649Z,29.42
2023-08-13T13:56:40.590Z,29.74
2023-08-13T13:59:13.602Z,29.92
2023-08-13T14:01:48.002Z,30.09
2023-08-13T14:04:20.957Z,30.32
2023-08-13T14:06:55.233Z,30.39
2023-08-13T14:09:30.448Z,30.47
2023-08-13T14:12:03.299Z,30.69
2023-08-13T14:14:36.262Z,30.92
2023-08-13T14:17:09.207Z,31.10
2023-08-13T14:19:42.125Z,31.13
2023-08-13T14:22:16.627Z,31.35
2023-08-13T14:24:53.005Z,31.42
2023-08-13T15:00:13.188Z,31.82
2023-08-13T15:02:46.247Z,31.93
2023-08-13T15:05:19.221Z,31.98
2023-08-13T15:07:51.943Z,31.91
2023-08-13T15:28:36.821Z,31.46
2023-08-13T17:12:42.676Z,28.40
2023-08-13T17:15:24.941Z,28.33
2023-08-13T17:27:03.485Z,27.83
2023-08-13T17:29:38.759Z,27.90
2023-08-13T17:32:15.269Z,27.66
2023-08-13T17:34:48.288Z,27.69
2023-08-13T17:37:21.220Z,27.55
2023-08-13T17:39:54.275Z,27.41
2023-08-13T17:42:27.701Z,27.45
2023-08-13T17:45:01.829Z,27.35
2023-08-13T17:47:34.572Z,27.34
2023-08-13T17:50:07.724Z,27.16
2023-08-13T17:52:40.610Z,27.20
2023-08-13T17:55:13.575Z,27.24
2023-08-13T17:57:46.385Z,27.18
2023-08-13T18:00:22.686Z,26.98
2023-08-13T18:02:55.888Z,26.91
2023-08-13T18:05:28.736Z,26.79
2023-08-13T18:08:15.452Z,26.64
2023-08-13T18:10:50.801Z,26.59
2023-08-13T18:13:23.540Z,26.55
2023-08-13T18:15:57.909Z,26.53
2023-08-13T18:18:31.088Z,26.35
2023-08-13T18:21:04.269Z,26.38
2023-08-13T18:23:37.101Z,26.29
2023-08-13T18:26:10.154Z,26.21
2023-08-13T18:28:42.957Z,26.13
2023-08-13T18:31:17.383Z,26.07
2023-08-13T18:33:52.360Z,26.00
2023-08-13T18:36:25.349Z,25.96
2023-08-13T18:38:58.199Z,25.75
2023-08-13T18:41:30.777Z,25.71
2023-08-13T18:44:04.098Z,25.60
2023-08-13T18:46:38.357Z,25.75
2023-08-13T18:49:11.204Z,25.84
2023-08-13T18:51:44.015Z,25.89
2023-08-13T18:54:16.918Z,25.79
2023-08-13T18:56:50.009Z,25.71
2023-08-13T18:59:23.449Z,25.70
2023-08-13T19:01:57.606Z,25.67
2023-08-13T19:04:30.660Z,25.71
2023-08-13T19:07:03.897Z,25.63
2023-08-13T19:09:36.875Z,25.55
2023-08-13T19:12:10.485Z,25.47
2023-08-13T19:14:43.442Z,25.43
2023-08-13T19:17:17.978Z,25.45
2023-08-13T19:19:50.793Z,25.48
2023-08-13T19:22:24.692Z,25.42
2023-08-13T19:24:57.769Z,25.42
2023-08-13T19:27:30.706Z,25.33
2023-08-13T19:30:03.646Z,25.25
2023-08-13T19:32:37.809Z,25.19
2023-08-13T19:35:11.140Z,25.18
2023-08-13T19:37:44.024Z,25.07
2023-08-13T19:40:17.496Z,25.06
2023-08-13T19:42:50.449Z,25.01
2023-08-13T19:45:23.352Z,24.99
2023-08-13T19:47:57.312Z,24.91
2023-08-13T19:50:32.277Z,24.92
2023-08-13T19:53:05.492Z,24.79
2023-08-13T19:55:38.346Z,24.66
2023-08-13T19:58:12.098Z,24.70
2023-08-13T20:00:45.238Z,24.67
2023-08-13T20:03:19.668Z,24.53
2023-08-13T20:05:52.494Z,24.54
2023-08-13T20:08:26.435Z,24.50
2023-08-13T20:10:59.636Z,24.51
2023-08-13T20:13:32.874Z,24.51
2023-08-13T20:16:06.167Z,24.41
2023-08-13T20:18:40.456Z,24.34
2023-08-13T20:21:13.344Z,24.27
2023-08-13T20:23:48.162Z,24.28
2023-08-13T20:26:22.996Z,24.23
2023-08-13T20:28:55.694Z,24.20
2023-08-13T20:31:29.974Z,24.15
2023-08-13T20:34:04.659Z,24.09
2023-08-13T20:36:39.279Z,24.08
2023-08-13T20:39:12.532Z,24.06
2023-08-13T20:41:47.258Z,23.97
2023-08-13T20:44:20.937Z,23.94
2023-08-13T20:46:55.039Z,23.95
2023-08-13T20:49:29.177Z,23.88
2023-08-13T20:52:02.102Z,23.84
2023-08-13T20:54:36.860Z,23.80
2023-08-13T20:57:11.850Z,23.74
2023-08-13T20:59:44.553Z,23.79
2023-08-13T21:02:17.805Z,23.76
2023-08-13T21:04:53.180Z,23.70
2023-08-13T21:07:26.292Z,23.68
2023-08-13T21:09:59.147Z,23.64
2023-08-13T21:12:31.796Z,23.62
2023-08-13T21:15:05.601Z,23.56
2023-08-13T21:17:38.541Z,23.55
2023-08-13T21:20:13.224Z,23.50
2023-08-13T21:22:46.018Z,23.42
2023-08-13T21:25:18.979Z,23.47
2023-08-13T21:27:51.774Z,23.37
2023-08-13T21:30:24.778Z,23.38
2023-08-13T21:32:58.422Z,23.35
2023-08-13T21:35:32.560Z,23.29
2023-08-13T21:38:05.570Z,23.23
2023-08-13T21:40:38.476Z,23.18
2023-08-13T21:43:11.542Z,23.14
2023-08-13T21:45:45.143Z,23.12
2023-08-13T21:48:17.760Z,23.06
2023-08-13T21:50:55.553Z,23.04
2023-08-13T21:53:33.984Z,23.01
2023-08-13T21:56:06.829Z,22.99
2023-08-13T21:58:39.598Z,22.98
2023-08-13T22:01:12.290Z,22.88
2023-08-13T22:03:45.209Z,22.89
2023-08-13T22:06:19.534Z,22.88
2023-08-13T22:08:53.247Z,22.87
2023-08-13T22:11:26.195Z,22.84
2023-08-13T22:13:59.212Z,22.78
2023-08-13T22:16:31.940Z,22.76
2023-08-13T22:19:05.127Z,22.72
2023-08-13T22:21:39.400Z,22.68
2023-08-13T22:24:12.068Z,22.68
2023-08-13T22:26:44.969Z,22.66
2023-08-13T22:29:17.644Z,22.65
2023-08-13T22:31:50.450Z,22.61
2023-08-13T22:34:23.362Z,22.55
2023-08-13T22:36:57.505Z,22.57
2023-08-13T22:39:31.051Z,22.50
2023-08-13T22:42:03.850Z,22.48
2023-08-13T22:44:36.862Z,22.50
2023-08-13T22:47:09.696Z,22.47
2023-08-13T22:49:42.425Z,22.43
2023-08-13T22:52:16.763Z,22.40
2023-08-13T22:54:49.896Z,22.42
2023-08-13T22:57:22.950Z,22.37
2023-08-13T22:59:55.641Z,22.39
2023-08-13T23:02:28.789Z,22.33
2023-08-13T23:05:01.938Z,22.31
2023-08-13T23:07:36.243Z,22.28
2023-08-13T23:10:09.657Z,22.21
2023-08-13T23:12:42.578Z,22.18
2023-08-13T23:15:15.912Z,22.18
2023-08-13T23:17:48.775Z,22.16
2023-08-13T23:20:24.111Z,22.16
2023-08-13T23:22:58.307Z,22.10
2023-08-13T23:25:31.128Z,22.09
2023-08-13T23:28:04.364Z,22.08
2023-08-13T23:30:37.264Z,22.07
2023-08-13T23:36:17.610Z,22.06
2023-08-13T23:38:51.854Z,22.02
2023-08-13T23:41:24.670Z,22.02
2023-08-13T23:43:57.314Z,22.03
2023-08-13T23:46:30.177Z,21.94
2023-08-13T23:49:02.922Z,21.91
2023-08-13T23:51:36.108Z,21.89
2023-08-13T23:54:10.872Z,21.88
2023-08-13T23:56:43.974Z,21.90
2023-08-13T23:59:16.758Z,21.87
